createdAt,value
2018-09-05T00:01:43.262Z,23.33
2018-09-05T00:04:14.926Z,23.20
2018-09-05T00:06:46.326Z,22.87
2018-09-05T00:09:16.610Z,23.53
2018-09-05T00:11:48.198Z,23.30
2018-09-05T00:14:18.394Z,23.60
2018-09-05T00:16:49.338Z,23.90
2018-09-05T00:19:19.818Z,23.37
2018-09-05T00:21:50.548Z,22.63
2018-09-05T00:24:21.850Z,23.13
2018-09-05T00:26:52.326Z,22.93
2018-09-05T00:29:22.486Z,23.03
2018-09-05T00:31:52.566Z,24.23
2018-09-05T00:34:24.754Z,22.07
2018-09-05T00:36:54.346Z,23.90
2018-09-05T00:39:24.435Z,25.43
2018-09-05T00:41:54.198Z,24.27
2018-09-05T00:44:25.233Z,24.13
2018-09-05T00:46:56.746Z,24.67
2018-09-05T00:49:25.946Z,25.57
2018-09-05T00:51:55.274Z,25.37
2018-09-05T00:54:24.522Z,25.17
2018-09-05T00:56:53.799Z,26.13
2018-09-05T00:59:23.434Z,25.47
2018-09-05T01:01:52.727Z,26.23
2018-09-05T01:04:22.262Z,24.63
2018-09-05T01:06:51.738Z,26.87
2018-09-05T01:09:21.572Z,25.73
2018-09-05T01:11:52.204Z,25.80
2018-09-05T01:14:21.746Z,26.13
2018-09-05T01:16:51.536Z,25.57
2018-09-05T01:19:21.458Z,24.60
2018-09-05T01:21:52.705Z,25.87
2018-09-05T01:24:24.303Z,26.47
2018-09-05T01:26:53.710Z,26.57
2018-09-05T01:29:26.024Z,26.33
2018-09-05T01:31:56.687Z,26.57
2018-09-05T01:34:26.822Z,25.97
2018-09-05T01:36:57.184Z,26.07
2018-09-05T01:39:27.006Z,25.67
2018-09-05T01:41:57.410Z,25.63
2018-09-05T01:44:28.526Z,25.07
2018-09-05T01:46:59.662Z,26.90
2018-09-05T01:49:31.514Z,25.63
2018-09-05T01:52:03.015Z,25.17
2018-09-05T01:54:32.619Z,26.60
2018-09-05T01:57:03.074Z,25.67
2018-09-05T01:59:33.070Z,26.77
2018-09-05T02:02:03.854Z,26.10
2018-09-05T02:04:34.142Z,26.90
2018-09-05T02:07:04.490Z,27.17
2018-09-05T02:09:33.990Z,26.70
2018-09-05T02:12:04.126Z,26.53
2018-09-05T02:14:33.879Z,27.83
2018-09-05T02:17:03.781Z,26.63
2018-09-05T02:19:34.276Z,26.37
2018-09-05T02:22:03.718Z,27.00
2018-09-05T02:24:32.412Z,26.03
2018-09-05T02:27:02.710Z,27.40
2018-09-05T02:29:32.181Z,26.73
2018-09-05T02:32:02.822Z,27.47
2018-09-05T02:34:33.130Z,27.67
2018-09-05T02:37:03.684Z,26.43
2018-09-05T02:39:34.354Z,27.70
2018-09-05T02:42:04.706Z,26.87
2018-09-05T02:44:34.920Z,26.77
2018-09-05T02:47:03.986Z,28.17
2018-09-05T02:49:33.207Z,27.53
2018-09-05T02:52:03.082Z,27.67
2018-09-05T02:54:34.217Z,27.87
2018-09-05T02:57:04.529Z,27.93
2018-09-05T02:59:36.290Z,28.23
2018-09-05T03:02:08.314Z,29.63
2018-09-05T03:04:40.070Z,29.60
2018-09-05T03:07:10.830Z,29.37
2018-09-05T03:09:41.322Z,29.87
2018-09-05T03:12:10.706Z,29.93
2018-09-05T03:14:40.182Z,29.43
2018-09-05T03:17:10.410Z,29.97
2018-09-05T03:19:42.146Z,30.97
2018-09-05T03:22:13.031Z,29.97
2018-09-05T03:24:44.110Z,29.73
2018-09-05T03:27:13.622Z,29.87
2018-09-05T03:29:45.122Z,30.20
2018-09-05T03:32:15.028Z,29.10
2018-09-05T03:34:44.074Z,29.17
2018-09-05T03:37:13.954Z,29.13
2018-09-05T03:39:44.247Z,29.70
2018-09-05T03:42:14.342Z,30.30
2018-09-05T03:44:45.026Z,28.60
2018-09-05T03:47:15.222Z,29.57
2018-09-05T03:49:47.671Z,29.43
2018-09-05T03:52:18.165Z,29.00
2018-09-05T03:54:48.865Z,28.50
2018-09-05T03:57:19.634Z,28.67
2018-09-05T03:59:51.191Z,29.83
2018-09-05T04:02:21.294Z,29.07
2018-09-05T04:04:51.462Z,29.00
2018-09-05T04:07:21.531Z,28.63
2018-09-05T04:09:52.202Z,27.47
2018-09-05T04:12:21.662Z,28.33
2018-09-05T04:14:51.811Z,28.60
2018-09-05T04:17:22.214Z,28.50
2018-09-05T04:19:52.295Z,28.43
2018-09-05T04:22:23.351Z,27.97
2018-09-05T04:24:54.346Z,27.77
2018-09-05T04:27:25.350Z,28.20
2018-09-05T04:29:56.364Z,30.07
2018-09-05T04:32:26.496Z,28.97
2018-09-05T04:34:57.463Z,27.57
2018-09-05T04:37:27.131Z,29.90
2018-09-05T04:39:57.230Z,30.00
2018-09-05T04:42:27.690Z,28.43
2018-09-05T04:44:57.990Z,28.07
2018-09-05T04:47:28.336Z,27.83
2018-09-05T04:49:58.607Z,30.00
2018-09-05T04:52:29.961Z,28.83
2018-09-05T04:55:00.429Z,31.83
2018-09-05T04:57:29.855Z,30.77
2018-09-05T04:59:59.309Z,33.70
2018-09-05T05:02:30.397Z,32.77
2018-09-05T05:05:00.217Z,33.00
2018-09-05T05:07:30.431Z,32.77
2018-09-05T05:10:02.566Z,33.57
2018-09-05T05:12:33.649Z,34.27
2018-09-05T05:15:05.047Z,33.40
2018-09-05T05:17:35.182Z,33.53
2018-09-05T05:20:05.118Z,33.27
2018-09-05T05:22:34.489Z,33.40
2018-09-05T05:25:04.490Z,33.87
2018-09-05T05:27:36.133Z,33.53
2018-09-05T05:30:06.106Z,32.63
2018-09-05T05:32:38.282Z,32.37
2018-09-05T05:35:08.432Z,32.70
2018-09-05T05:37:39.747Z,33.10
2018-09-05T05:40:10.168Z,31.90
2018-09-05T05:42:41.694Z,31.30
2018-09-05T05:45:13.694Z,31.40
2018-09-05T05:47:45.774Z,32.57
2018-09-05T05:50:16.094Z,31.33
2018-09-05T05:52:47.154Z,31.77
2018-09-05T05:55:18.371Z,31.47
2018-09-05T05:57:49.298Z,29.33
2018-09-05T06:00:22.970Z,30.37
2018-09-05T06:02:54.812Z,30.73
2018-09-05T06:05:26.107Z,31.13
2018-09-05T06:07:56.350Z,30.97
2018-09-05T06:13:32.271Z,30.17
2018-09-05T06:16:02.934Z,30.80
2018-09-05T06:18:33.185Z,29.67
2018-09-05T06:21:02.962Z,29.53
2018-09-05T06:23:32.617Z,29.70
2018-09-05T06:26:03.934Z,28.83
2018-09-05T06:28:34.755Z,28.60
2018-09-05T06:31:05.484Z,30.67
2018-09-05T06:33:35.799Z,29.80
2018-09-05T06:36:05.274Z,30.57
2018-09-05T06:38:34.490Z,31.67
2018-09-05T06:41:04.017Z,30.73
2018-09-05T06:43:33.414Z,30.83
2018-09-05T06:46:03.053Z,31.67
2018-09-05T06:48:32.490Z,30.27
2018-09-05T06:51:03.286Z,30.67
2018-09-05T06:53:34.045Z,30.67
2018-09-05T06:56:04.325Z,30.80
2018-09-05T06:58:35.802Z,30.13
2018-09-05T07:01:06.310Z,30.77
2018-09-05T07:03:37.255Z,29.30
2018-09-05T07:06:06.447Z,28.80
2018-09-05T07:08:36.062Z,30.20
2018-09-05T07:11:06.422Z,29.90
2018-09-05T07:13:37.922Z,29.80
2018-09-05T07:16:08.746Z,28.80
2018-09-05T07:18:38.565Z,28.37
2018-09-05T07:21:08.968Z,28.27
2018-09-05T07:23:38.598Z,27.57
2018-09-05T07:26:10.066Z,28.03
2018-09-05T07:28:40.827Z,27.93
2018-09-05T07:31:12.604Z,27.77
2018-09-05T07:33:44.574Z,27.53
2018-09-05T07:36:15.326Z,26.27
2018-09-05T07:38:45.083Z,26.27
2018-09-05T07:41:14.230Z,25.33
2018-09-05T07:43:44.840Z,25.00
2018-09-05T07:46:16.139Z,24.53
2018-09-05T07:48:46.225Z,26.37
2018-09-05T07:51:17.749Z,25.10
2018-09-05T07:53:49.799Z,25.13
2018-09-05T07:56:19.882Z,25.30
2018-09-05T07:58:49.926Z,25.37
2018-09-05T08:01:20.687Z,27.97
2018-09-05T08:03:50.855Z,25.50
2018-09-05T08:06:21.154Z,25.30
2018-09-05T08:08:51.978Z,25.63
2018-09-05T08:11:24.393Z,25.30
2018-09-05T08:13:53.799Z,24.03
2018-09-05T08:16:24.239Z,23.90
2018-09-05T08:18:56.954Z,24.20
2018-09-05T08:21:28.046Z,23.90
2018-09-05T08:23:59.207Z,23.00
2018-09-05T08:26:31.174Z,22.50
2018-09-05T08:29:02.707Z,22.47
2018-09-05T08:31:33.535Z,21.63
2018-09-05T08:34:05.503Z,21.73
2018-09-05T08:36:35.001Z,21.80
2018-09-05T08:39:06.656Z,22.83
2018-09-05T08:41:36.330Z,22.57
2018-09-05T08:44:06.043Z,23.23
2018-09-05T08:46:36.949Z,21.17
2018-09-05T08:49:07.894Z,22.40
2018-09-05T08:51:39.740Z,20.97
2018-09-05T08:54:10.251Z,22.30
2018-09-05T08:56:40.033Z,19.87
2018-09-05T08:59:09.534Z,21.40
2018-09-05T09:01:39.064Z,21.77
2018-09-05T09:04:08.955Z,23.53
2018-09-05T09:06:38.831Z,22.90
2018-09-05T09:09:11.660Z,21.70
2018-09-05T09:11:42.275Z,19.33
2018-09-05T09:14:13.879Z,21.83
2018-09-05T09:16:44.791Z,21.50
2018-09-05T09:19:14.415Z,19.67
2018-09-05T09:21:44.066Z,22.00
2018-09-05T09:24:15.522Z,19.27
2018-09-05T09:26:45.795Z,17.10
2018-09-05T09:29:17.551Z,19.23
2018-09-05T09:31:49.026Z,18.13
2018-09-05T09:34:18.152Z,18.83
2018-09-05T09:36:47.955Z,21.53
2018-09-05T09:39:17.790Z,22.23
2018-09-05T09:41:47.938Z,20.67
2018-09-05T09:44:19.096Z,24.70
2018-09-05T09:46:49.292Z,23.47
2018-09-05T09:49:20.716Z,26.27
2018-09-05T09:51:51.139Z,25.97
2018-09-05T09:54:21.918Z,25.13
2018-09-05T09:56:52.691Z,24.63
2018-09-05T09:59:22.514Z,24.33
2018-09-05T10:01:57.474Z,25.63
2018-09-05T10:04:33.271Z,24.77
2018-09-05T10:07:09.510Z,25.17
2018-09-05T10:09:45.697Z,19.83
2018-09-05T10:12:21.089Z,22.63
2018-09-05T10:14:58.396Z,21.80
2018-09-05T10:17:31.136Z,22.20
2018-09-05T10:20:01.147Z,22.27
2018-09-05T10:22:31.849Z,21.00
2018-09-05T10:25:01.399Z,20.57
2018-09-05T10:27:30.615Z,21.57
2018-09-05T10:30:01.650Z,19.43
2018-09-05T10:32:31.870Z,19.90
2018-09-05T10:35:01.325Z,21.60
2018-09-05T10:37:31.379Z,22.57
2018-09-05T10:40:02.458Z,20.17
2018-09-05T10:42:32.870Z,18.10
2018-09-05T10:45:02.750Z,18.87
2018-09-05T10:47:33.015Z,17.90
2018-09-05T10:50:03.778Z,14.73
2018-09-05T10:52:34.398Z,16.10
2018-09-05T10:55:04.830Z,14.93
2018-09-05T10:57:36.006Z,16.27
2018-09-05T11:00:06.230Z,16.50
2018-09-05T11:02:38.799Z,15.90
2018-09-05T11:05:09.626Z,14.37
2018-09-05T11:07:39.044Z,16.30
2018-09-05T11:10:08.110Z,16.27
2018-09-05T11:12:38.683Z,17.37
2018-09-05T11:15:08.551Z,15.67
2018-09-05T11:17:38.555Z,15.20
2018-09-05T11:20:10.562Z,15.93
2018-09-05T11:22:41.833Z,14.80
2018-09-05T11:25:11.082Z,15.33
2018-09-05T11:27:40.614Z,15.97
2018-09-05T11:30:09.697Z,16.43
2018-09-05T11:32:40.421Z,15.90
2018-09-05T11:35:09.813Z,14.30
2018-09-05T11:37:40.048Z,14.07
2018-09-05T11:40:11.610Z,14.40
2018-09-05T11:42:42.914Z,15.07
2018-09-05T11:45:13.249Z,16.23
2018-09-05T11:47:42.925Z,14.80
2018-09-05T11:50:14.026Z,14.13
2018-09-05T11:52:46.058Z,14.90
2018-09-05T11:55:16.523Z,13.70
2018-09-05T11:57:46.954Z,14.77
2018-09-05T12:00:16.106Z,14.23
2018-09-05T12:02:45.904Z,13.87
2018-09-05T12:05:15.137Z,13.93
2018-09-05T12:07:45.418Z,13.17
2018-09-05T12:10:16.570Z,12.90
2018-09-05T12:12:46.794Z,12.87
2018-09-05T12:15:16.318Z,13.80
2018-09-05T12:17:47.011Z,12.57
2018-09-05T12:20:16.782Z,12.83
2018-09-05T12:22:47.002Z,11.90
2018-09-05T12:25:17.880Z,11.90
2018-09-05T12:27:47.811Z,12.50
2018-09-05T12:30:18.242Z,12.90
2018-09-05T12:32:48.386Z,13.20
2018-09-05T12:35:17.245Z,13.80
2018-09-05T12:37:47.776Z,13.57
2018-09-05T12:40:17.798Z,12.40
2018-09-05T12:42:47.726Z,12.60
2018-09-05T12:45:18.055Z,13.20
2018-09-05T12:47:47.964Z,12.50
2018-09-05T12:50:18.929Z,13.00
2018-09-05T12:52:49.296Z,12.83
2018-09-05T12:55:19.185Z,13.47
2018-09-05T12:57:48.854Z,12.67
2018-09-05T13:00:19.120Z,12.77
2018-09-05T13:02:48.972Z,12.17
2018-09-05T13:05:18.440Z,11.37
2018-09-05T13:07:49.231Z,12.70
2018-09-05T13:10:19.099Z,12.57
2018-09-05T13:12:48.713Z,14.00
2018-09-05T13:15:18.053Z,13.30
2018-09-05T13:17:48.330Z,12.70
2018-09-05T13:20:19.948Z,14.77
2018-09-05T13:22:51.458Z,13.10
2018-09-05T13:25:21.989Z,11.87
2018-09-05T13:27:53.018Z,14.27
2018-09-05T13:30:22.798Z,14.97
2018-09-05T13:32:54.941Z,12.87
2018-09-05T13:35:25.918Z,14.30
2018-09-05T13:37:55.354Z,15.20
2018-09-05T13:40:26.610Z,16.40
2018-09-05T13:42:56.155Z,14.67
2018-09-05T13:45:26.154Z,16.13
2018-09-05T13:47:56.357Z,15.00
2018-09-05T13:50:25.809Z,13.40
2018-09-05T13:52:56.564Z,14.47
2018-09-05T13:55:26.487Z,13.53
2018-09-05T13:57:56.922Z,14.40
2018-09-05T14:00:27.902Z,12.83
2018-09-05T14:02:57.918Z,13.87
2018-09-05T14:05:27.931Z,14.63
2018-09-05T14:07:57.292Z,13.63
2018-09-05T14:10:26.826Z,13.87
2018-09-05T14:12:58.474Z,14.50
2018-09-05T14:15:28.830Z,14.07
2018-09-05T14:17:58.245Z,14.47
2018-09-05T14:20:27.146Z,12.87
2018-09-05T14:22:56.557Z,13.70
2018-09-05T14:25:25.954Z,16.30
2018-09-05T14:27:56.517Z,16.30
2018-09-05T14:30:28.642Z,16.90
2018-09-05T14:32:58.226Z,16.30
2018-09-05T14:35:27.385Z,15.43
2018-09-05T14:37:57.842Z,14.97
2018-09-05T14:40:29.070Z,14.00
2018-09-05T14:42:59.110Z,15.47
2018-09-05T14:45:29.438Z,14.33
2018-09-05T14:48:00.027Z,13.97
2018-09-05T14:50:30.454Z,14.07
2018-09-05T14:53:02.202Z,13.50
2018-09-05T14:55:34.631Z,13.10
2018-09-05T14:58:05.878Z,12.27
2018-09-05T15:00:35.834Z,11.63
2018-09-05T15:03:05.426Z,12.30
2018-09-05T15:05:34.889Z,12.17
2018-09-05T15:08:04.070Z,11.77
2018-09-05T15:10:35.442Z,11.73
2018-09-05T15:13:06.855Z,11.70
2018-09-05T15:15:37.838Z,11.67
2018-09-05T15:18:09.494Z,12.10
2018-09-05T15:20:39.142Z,12.60
2018-09-05T15:23:09.542Z,12.40
2018-09-05T15:25:38.750Z,12.43
2018-09-05T15:28:09.895Z,14.33
2018-09-05T15:30:39.090Z,12.83
2018-09-05T15:33:09.027Z,13.90
2018-09-05T15:35:39.891Z,16.33
2018-09-05T15:38:09.890Z,15.20
2018-09-05T15:40:40.364Z,16.70
2018-09-05T15:43:10.762Z,15.37
2018-09-05T15:45:41.095Z,15.90
2018-09-05T15:48:11.574Z,14.70
2018-09-05T15:50:41.463Z,16.27
2018-09-05T15:53:12.771Z,15.37
2018-09-05T15:55:42.662Z,14.43
2018-09-05T15:58:14.610Z,14.67
2018-09-05T16:00:44.914Z,14.07
2018-09-05T16:03:14.750Z,14.80
2018-09-05T16:05:45.411Z,14.60
2018-09-05T16:08:16.030Z,14.33
2018-09-05T16:10:46.310Z,13.27
2018-09-05T16:13:16.674Z,11.80
2018-09-05T16:15:47.869Z,12.33
2018-09-05T16:18:18.287Z,11.77
2018-09-05T16:20:47.857Z,12.47
2018-09-05T16:23:17.842Z,12.33
2018-09-05T16:25:48.990Z,12.07
2018-09-05T16:28:19.003Z,12.23
2018-09-05T16:30:48.668Z,11.83
2018-09-05T16:33:20.934Z,11.47
2018-09-05T16:35:53.488Z,11.40
2018-09-05T16:38:24.062Z,11.20
2018-09-05T16:40:53.882Z,11.37
2018-09-05T16:43:23.702Z,10.80
2018-09-05T16:45:53.486Z,10.93
2018-09-05T16:48:24.103Z,10.10
2018-09-05T16:50:54.607Z,11.23
2018-09-05T16:53:24.897Z,11.10
2018-09-05T16:55:55.717Z,10.80
2018-09-05T16:58:26.874Z,11.33
2018-09-05T17:00:57.608Z,11.00
2018-09-05T17:03:27.409Z,11.20
2018-09-05T17:05:58.090Z,10.87
2018-09-05T17:08:30.262Z,12.10
2018-09-05T17:11:00.722Z,10.80
2018-09-05T17:13:31.789Z,11.80
2018-09-05T17:16:01.735Z,11.47
2018-09-05T17:18:32.411Z,11.10
2018-09-05T17:21:02.889Z,10.27
2018-09-05T17:23:33.120Z,10.90
2018-09-05T17:26:02.886Z,10.73
2018-09-05T17:28:32.481Z,10.73
2018-09-05T17:31:02.990Z,10.43
2018-09-05T17:33:34.066Z,10.13
2018-09-05T17:36:04.707Z,9.27
2018-09-05T17:38:34.614Z,9.70
2018-09-05T17:41:04.745Z,10.10
2018-09-05T17:43:33.990Z,9.50
2018-09-05T17:46:05.102Z,10.07
2018-09-05T17:48:35.713Z,9.10
2018-09-05T17:51:06.878Z,9.77
2018-09-05T17:53:37.583Z,10.20
2018-09-05T17:56:06.694Z,9.63
2018-09-05T17:58:36.574Z,9.40
2018-09-05T18:01:11.386Z,9.93
2018-09-05T18:03:42.822Z,9.60
2018-09-05T18:06:12.218Z,9.60
2018-09-05T18:08:41.754Z,8.87
2018-09-05T18:11:12.418Z,9.37
2018-09-05T18:13:43.706Z,9.33
2018-09-05T18:16:14.865Z,8.80
2018-09-05T18:18:45.635Z,9.03
2018-09-05T18:21:15.587Z,8.60
2018-09-05T18:23:46.106Z,8.00
2018-09-05T18:26:16.794Z,8.83
2018-09-05T18:28:46.214Z,8.53
2018-09-05T18:31:15.873Z,7.93
2018-09-05T18:33:46.305Z,8.00
2018-09-05T18:36:17.238Z,7.87
2018-09-05T18:38:48.582Z,7.87
2018-09-05T18:41:18.610Z,8.27
2018-09-05T18:43:48.686Z,8.13
2018-09-05T18:46:19.226Z,7.60
2018-09-05T18:48:52.418Z,7.87
2018-09-05T18:51:23.657Z,7.57
2018-09-05T18:53:54.099Z,7.77
2018-09-05T18:56:25.298Z,7.63
2018-09-05T18:58:56.061Z,7.70
2018-09-05T19:01:26.814Z,7.57
2018-09-05T19:03:56.941Z,7.20
2018-09-05T19:06:27.110Z,7.47
2018-09-05T19:08:57.049Z,7.07
2018-09-05T19:11:26.443Z,7.60
2018-09-05T19:13:56.829Z,7.33
2018-09-05T19:16:27.208Z,7.40
2018-09-05T19:18:57.934Z,7.33
2018-09-05T19:21:28.186Z,8.20
2018-09-05T19:23:59.154Z,7.67
2018-09-05T19:26:29.478Z,6.93
2018-09-05T19:28:59.829Z,7.40
2018-09-05T19:31:31.753Z,7.33
2018-09-05T19:34:01.542Z,7.47
2018-09-05T19:36:31.092Z,7.70
2018-09-05T19:39:01.446Z,7.50
2018-09-05T19:41:32.806Z,7.33
2018-09-05T19:44:06.930Z,7.50
2018-09-05T19:46:37.766Z,7.33
2018-09-05T19:49:07.743Z,6.17
2018-09-05T19:51:37.950Z,7.30
2018-09-05T19:54:07.699Z,6.43
2018-09-05T19:56:36.902Z,7.43
2018-09-05T19:59:08.021Z,7.10
2018-09-05T20:01:37.958Z,7.07
2018-09-05T20:04:07.350Z,7.17
2018-09-05T20:06:37.103Z,7.13
2018-09-05T20:09:08.749Z,7.00
2018-09-05T20:11:40.442Z,7.47
2018-09-05T20:14:11.157Z,6.80
2018-09-05T20:16:41.762Z,6.97
2018-09-05T20:19:12.458Z,7.30
2018-09-05T20:21:42.103Z,7.30
2018-09-05T20:24:12.074Z,6.93
2018-09-05T20:26:41.897Z,7.43
2018-09-05T20:29:11.650Z,6.90
2018-09-05T20:31:41.151Z,7.33
2018-09-05T20:34:11.690Z,6.70
2018-09-05T20:36:42.946Z,6.93
2018-09-05T20:39:14.483Z,7.70
2018-09-05T20:41:45.247Z,6.87
2018-09-05T20:44:16.588Z,7.70
2018-09-05T20:46:47.071Z,7.60
2018-09-05T20:49:17.794Z,7.97
2018-09-05T20:51:49.474Z,7.03
2018-09-05T20:54:20.806Z,7.00
2018-09-05T20:56:51.134Z,7.17
2018-09-05T20:59:21.839Z,7.67
2018-09-05T21:01:52.837Z,8.07
2018-09-05T21:04:23.246Z,7.00
2018-09-05T21:06:53.026Z,7.43
2018-09-05T21:09:23.260Z,7.07
2018-09-05T21:11:54.031Z,7.10
2018-09-05T21:14:23.979Z,7.60
2018-09-05T21:16:54.661Z,7.60
2018-09-05T21:19:25.094Z,7.20
2018-09-05T21:21:54.934Z,7.80
2018-09-05T21:24:24.823Z,6.77
2018-09-05T21:26:55.733Z,7.17
2018-09-05T21:29:26.422Z,6.93
2018-09-05T21:31:56.878Z,7.50
2018-09-05T21:34:27.058Z,6.63
2018-09-05T21:36:56.165Z,6.93
2018-09-05T21:39:25.966Z,6.67
2018-09-05T21:41:57.012Z,7.50
2018-09-05T21:44:26.384Z,6.87
2018-09-05T21:46:58.041Z,7.90
2018-09-05T21:49:27.418Z,6.70
2018-09-05T21:51:57.494Z,7.13
2018-09-05T21:54:28.330Z,6.90
2018-09-05T21:57:00.642Z,7.33
2018-09-05T21:59:31.058Z,7.70
2018-09-05T22:02:02.354Z,7.33
2018-09-05T22:04:33.443Z,7.57
2018-09-05T22:07:03.726Z,7.57
2018-09-05T22:09:33.982Z,6.93
2018-09-05T22:12:03.666Z,7.13
2018-09-05T22:14:33.019Z,7.30
2018-09-05T22:17:02.814Z,7.50
2018-09-05T22:19:33.594Z,6.63
2018-09-05T22:22:03.945Z,7.23
2018-09-05T22:24:34.367Z,7.40
2018-09-05T22:27:05.253Z,6.47
2018-09-05T22:29:36.236Z,7.00
2018-09-05T22:32:07.689Z,7.20
2018-09-05T22:34:38.059Z,6.83
2018-09-05T22:37:08.037Z,7.43
2018-09-05T22:39:38.028Z,7.60
2018-09-05T22:42:08.295Z,7.33
2018-09-05T22:44:48.979Z,7.20
2018-09-05T22:47:30.094Z,6.83
2018-09-05T22:50:16.426Z,7.73
2018-09-05T22:53:03.368Z,7.90
2018-09-05T22:57:59.555Z,6.60
2018-09-05T23:00:41.307Z,7.00
2018-09-05T23:04:22.249Z,7.87
2018-09-05T23:09:06.651Z,7.53
2018-09-05T23:11:54.065Z,7.63
2018-09-05T23:14:34.526Z,7.73
2018-09-05T23:17:15.587Z,7.27
2018-09-05T23:20:01.151Z,7.70
2018-09-05T23:22:42.613Z,7.33
2018-09-05T23:25:12.966Z,7.93
2018-09-05T23:27:43.387Z,7.77
2018-09-05T23:30:14.059Z,7.50
2018-09-05T23:32:45.701Z,8.27
2018-09-05T23:35:15.286Z,7.80
2018-09-05T23:37:44.734Z,7.53
2018-09-05T23:40:15.403Z,7.33
2018-09-05T23:42:47.509Z,7.33
2018-09-05T23:45:17.246Z,7.70
2018-09-05T23:47:48.231Z,7.93
2018-09-05T23:50:18.247Z,8.17
2018-09-05T23:52:47.243Z,7.97
2018-09-05T23:55:18.491Z,8.23
2018-09-05T23:57:48.711Z,7.87
